Time;durP1;ratioP1;P1;durP2;ratioP2;P2;SDS_P1;SDS_P2;PMS_P1;PMS_P2;Temp;Humidity;BMP_temperature;BMP_pressure;BME280_temperature;BME280_humidity;BME280_pressure;Samples;Min_cycle;Max_cycle;Signal;HPM_P1;HPM_P2
2024/01/03 00:00:06;;;;;;;1.85;0.65;;;8.40;99.90;;;;;;4397617;32;20057;-63
2024/01/03 00:02:32;;;;;;;0.52;0.52;;;8.50;99.90;;;;;;4377653;32;20070;-62
2024/01/03 00:04:58;;;;;;;0.32;0.32;;;8.50;99.90;;;;;;4395536;32;20074;-63
2024/01/03 00:07:24;;;;;;;0.30;0.30;;;8.50;99.90;;;;;;4398475;32;20564;-61
2024/01/03 00:10:00;;;;;;;0.65;0.60;;;8.50;99.90;;;;;;4392662;32;20077;-62
2024/01/03 00:12:25;;;;;;;0.20;0.20;;;8.50;99.90;;;;;;4394821;32;20784;-62
2024/01/03 00:14:51;;;;;;;0.20;0.20;;;8.60;99.90;;;;;;4396383;32;20083;-63
2024/01/03 00:17:18;;;;;;;0.35;0.35;;;8.60;99.90;;;;;;4395156;32;20098;-63
2024/01/03 00:19:44;;;;;;;0.20;0.20;;;8.60;99.90;;;;;;4394998;32;20524;-62
2024/01/03 00:22:13;;;;;;;0.30;0.30;;;8.60;99.90;;;;;;4395788;32;20374;-63
2024/01/03 00:24:46;;;;;;;0.30;0.30;;;8.60;99.90;;;;;;4383066;32;20125;-62
2024/01/03 00:27:13;;;;;;;0.35;0.35;;;8.60;99.90;;;;;;4379009;32;20126;-62
2024/01/03 00:29:47;;;;;;;0.30;0.30;;;8.60;99.90;;;;;;4393210;32;20188;-61
2024/01/03 00:32:13;;;;;;;0.75;0.75;;;8.60;99.90;;;;;;4392246;32;20085;-63
2024/01/03 00:34:39;;;;;;;0.30;0.30;;;8.60;99.90;;;;;;4393079;32;20061;-63
2024/01/03 00:37:23;;;;;;;0.40;0.40;;;8.60;99.90;;;;;;4395477;32;20086;-63
2024/01/03 00:39:48;;;;;;;0.20;0.20;;;8.60;99.90;;;;;;4394248;32;20085;-62
2024/01/03 00:42:14;;;;;;;0.30;0.30;;;8.60;99.90;;;;;;4393012;32;20106;-62
2024/01/03 00:44:39;;;;;;;0.52;0.52;;;8.60;99.90;;;;;;4396204;32;20082;-63
2024/01/03 00:47:05;;;;;;;0.62;0.62;;;8.60;99.90;;;;;;4397882;32;20093;-63
2024/01/03 00:49:31;;;;;;;0.30;0.30;;;8.60;99.90;;;;;;4396878;32;20069;-63
2024/01/03 00:51:59;;;;;;;2.55;1.40;;;8.60;99.90;;;;;;4394848;32;20442;-61
2024/01/03 00:54:26;;;;;;;0.40;0.40;;;8.60;99.90;;;;;;4395771;32;20057;-63
2024/01/03 00:56:52;;;;;;;0.30;0.30;;;8.70;99.90;;;;;;4395854;32;20094;-64
2024/01/03 00:59:17;;;;;;;0.20;0.20;;;8.70;99.90;;;;;;4394562;32;20299;-62
2024/01/03 01:04:11;;;;;;;0.30;0.30;;;8.70;99.90;;;;;;4395146;32;20082;-62
2024/01/03 01:06:37;;;;;;;0.20;0.20;;;8.70;99.90;;;;;;4378196;32;20129;-61
2024/01/03 01:09:03;;;;;;;1.87;0.57;;;8.70;99.90;;;;;;4394422;32;20470;-64
2024/01/03 01:11:29;;;;;;;0.35;0.35;;;8.70;99.90;;;;;;4391957;32;20077;-62
2024/01/03 01:13:55;;;;;;;0.30;0.30;;;8.70;99.90;;;;;;4396179;32;20522;-62
2024/01/03 01:16:21;;;;;;;0.30;0.30;;;8.70;99.90;;;;;;4394520;32;20078;-61
2024/01/03 01:18:46;;;;;;;0.20;0.20;;;8.60;99.90;;;;;;4392115;32;20103;-61
2024/01/03 01:21:12;;;;;;;0.30;0.30;;;8.60;99.90;;;;;;4365793;32;20066;-62
2024/01/03 01:23:42;;;;;;;0.30;0.30;;;8.70;99.90;;;;;;4396058;32;20129;-62
2024/01/03 01:26:07;;;;;;;0.30;0.30;;;8.70;99.90;;;;;;4393992;32;20060;-62
2024/01/03 01:28:33;;;;;;;0.40;0.40;;;8.80;99.90;;;;;;4394313;32;20087;-62
2024/01/03 01:30:58;;;;;;;0.20;0.20;;;8.70;99.90;;;;;;4393090;32;20125;-61
2024/01/03 01:33:24;;;;;;;0.30;0.30;;;8.70;99.90;;;;;;4396307;32;20066;-62
2024/01/03 01:35:49;;;;;;;0.30;0.30;;;8.70;99.90;;;;;;4397081;32;20150;-62
2024/01/03 01:38:15;;;;;;;0.20;0.20;;;8.70;99.90;;;;;;4396522;32;20058;-62
2024/01/03 01:40:40;;;;;;;0.60;0.60;;;8.70;99.90;;;;;;4394173;32;20070;-62
2024/01/03 01:43:06;;;;;;;0.30;0.30;;;8.70;99.90;;;;;;4395173;32;20086;-62
2024/01/03 01:45:32;;;;;;;0.30;0.30;;;8.70;99.90;;;;;;4394197;32;20547;-62
2024/01/03 01:47:58;;;;;;;0.30;0.30;;;8.60;99.90;;;;;;4378786;32;20128;-60
2024/01/03 01:50:24;;;;;;;0.30;0.30;;;8.60;99.90;;;;;;4394130;32;20086;-62
2024/01/03 01:52:49;;;;;;;0.40;0.40;;;8.60;99.90;;;;;;4392250;32;20094;-61
2024/01/03 01:55:16;;;;;;;0.30;0.30;;;8.60;99.90;;;;;;4391886;32;20074;-62
2024/01/03 01:57:42;;;;;;;0.30;0.30;;;8.50;99.90;;;;;;4392553;32;20095;-63
2024/01/03 02:02:36;;;;;;;0.40;0.40;;;8.60;99.90;;;;;;4392845;32;20062;-61
2024/01/03 02:05:02;;;;;;;0.30;0.30;;;8.60;99.90;;;;;;4395597;32;20066;-63
2024/01/03 02:07:30;;;;;;;0.30;0.30;;;8.60;99.90;;;;;;4385200;32;20069;-61
2024/01/03 02:09:56;;;;;;;0.40;0.40;;;8.60;99.90;;;;;;4391605;32;20086;-61
2024/01/03 02:12:29;;;;;;;0.20;0.20;;;8.60;99.90;;;;;;4375277;32;20054;-61
2024/01/03 02:14:55;;;;;;;0.30;0.30;;;8.70;99.90;;;;;;4378041;32;20131;-62
2024/01/03 02:17:21;;;;;;;0.30;0.30;;;8.70;99.90;;;;;;4379667;32;20113;-62
2024/01/03 02:19:47;;;;;;;0.30;0.30;;;8.70;99.90;;;;;;4378805;32;20486;-62
2024/01/03 02:22:12;;;;;;;0.30;0.30;;;8.80;99.90;;;;;;4394300;32;20083;-62
2024/01/03 02:24:38;;;;;;;0.30;0.30;;;8.80;99.90;;;;;;4394341;32;20129;-60
2024/01/03 02:27:04;;;;;;;0.30;0.30;;;8.80;99.90;;;;;;4393884;32;20074;-61
2024/01/03 02:29:29;;;;;;;0.30;0.30;;;8.80;99.90;;;;;;4393880;32;20189;-62
2024/01/03 02:31:55;;;;;;;0.30;0.30;;;8.90;99.90;;;;;;4392224;32;20065;-62
2024/01/03 02:34:20;;;;;;;0.45;0.45;;;8.90;99.90;;;;;;4391170;32;20082;-60
2024/01/03 02:36:50;;;;;;;0.30;0.30;;;9.00;99.90;;;;;;4392837;32;20129;-61
2024/01/03 02:39:15;;;;;;;0.30;0.30;;;9.00;99.90;;;;;;4380896;32;20094;-61
2024/01/03 02:41:41;;;;;;;0.20;0.20;;;9.00;99.90;;;;;;4392938;32;20567;-62
2024/01/03 02:44:06;;;;;;;0.20;0.20;;;9.00;99.90;;;;;;4395046;32;20086;-62
2024/01/03 02:46:32;;;;;;;0.30;0.30;;;9.00;99.90;;;;;;4392302;32;20081;-63
2024/01/03 02:48:57;;;;;;;0.30;0.30;;;9.10;99.90;;;;;;4394565;32;20411;-61
2024/01/03 02:51:22;;;;;;;0.30;0.30;;;9.00;99.90;;;;;;4392971;32;20073;-62
2024/01/03 02:53:49;;;;;;;2.25;0.40;;;9.00;99.90;;;;;;4392798;32;20402;-61
2024/01/03 02:56:15;;;;;;;0.30;0.30;;;9.00;99.90;;;;;;4375164;32;20136;-60
2024/01/03 02:58:40;;;;;;;0.30;0.30;;;9.10;99.90;;;;;;4375848;32;20772;-61
2024/01/03 03:01:06;;;;;;;0.30;0.30;;;9.10;99.90;;;;;;4395447;32;20086;-61
2024/01/03 03:03:31;;;;;;;0.30;0.30;;;9.10;99.90;;;;;;4394719;32;20066;-61
2024/01/03 03:05:57;;;;;;;2.90;0.70;;;9.10;99.90;;;;;;4392959;32;20423;-60
2024/01/03 03:08:22;;;;;;;0.25;0.25;;;9.10;99.90;;;;;;4391244;32;20478;-61
2024/01/03 03:10:48;;;;;;;0.30;0.30;;;9.10;99.90;;;;;;4376792;32;20090;-61
2024/01/03 03:13:14;;;;;;;0.30;0.30;;;9.10;99.90;;;;;;4390990;32;20086;-61
2024/01/03 03:15:39;;;;;;;0.30;0.30;;;9.00;99.90;;;;;;4397234;32;20547;-61
2024/01/03 03:18:07;;;;;;;0.20;0.20;;;8.90;99.90;;;;;;4396247;32;20058;-63
2024/01/03 03:20:32;;;;;;;0.20;0.20;;;8.90;99.90;;;;;;4382520;32;20066;-61
2024/01/03 03:22:58;;;;;;;0.30;0.30;;;8.90;99.90;;;;;;4399996;32;20420;-61
2024/01/03 03:25:23;;;;;;;0.40;0.40;;;8.90;99.90;;;;;;4400163;32;20146;-61
2024/01/03 03:27:49;;;;;;;0.30;0.30;;;8.80;99.90;;;;;;4398176;32;20501;-61
2024/01/03 03:30:15;;;;;;;0.20;0.20;;;8.80;99.90;;;;;;4396734;32;20075;-62
2024/01/03 03:32:44;;;;;;;1.02;0.95;;;8.80;99.90;;;;;;4399133;32;20128;-61
2024/01/03 03:35:10;;;;;;;0.30;0.30;;;8.80;99.90;;;;;;4399480;32;20474;-61
2024/01/03 03:37:35;;;;;;;0.77;0.77;;;8.80;99.90;;;;;;4396601;32;20102;-61
2024/01/03 03:40:01;;;;;;;0.30;0.30;;;8.80;99.90;;;;;;4395676;32;20062;-60
2024/01/03 03:42:26;;;;;;;0.30;0.30;;;8.80;99.90;;;;;;4397082;32;20086;-61
2024/01/03 03:44:53;;;;;;;0.30;0.30;;;8.70;99.90;;;;;;4397732;32;20544;-61
2024/01/03 03:47:19;;;;;;;0.20;0.20;;;8.70;99.90;;;;;;4397881;32;20496;-61
2024/01/03 03:49:44;;;;;;;0.30;0.30;;;8.70;99.90;;;;;;4399826;32;20071;-61
2024/01/03 03:52:10;;;;;;;0.30;0.30;;;8.70;99.90;;;;;;4400821;32;20513;-61
2024/01/03 03:54:35;;;;;;;0.30;0.30;;;8.60;99.90;;;;;;4398675;32;20072;-61
2024/01/03 03:57:01;;;;;;;0.20;0.20;;;8.60;99.90;;;;;;4396926;32;20090;-61
2024/01/03 03:59:26;;;;;;;1.75;0.77;;;8.70;99.90;;;;;;4394193;32;20094;-60
2024/01/03 04:01:52;;;;;;;0.32;0.32;;;8.70;99.90;;;;;;4398467;32;20931;-61
2024/01/03 04:04:17;;;;;;;0.30;0.30;;;8.60;99.90;;;;;;4401024;32;20074;-61
2024/01/03 04:06:43;;;;;;;0.40;0.40;;;8.70;99.90;;;;;;4396828;32;20156;-61
2024/01/03 04:09:12;;;;;;;0.30;0.30;;;8.60;99.90;;;;;;4399520;32;20086;-61
2024/01/03 04:11:41;;;;;;;0.30;0.30;;;8.60;99.90;;;;;;4399848;32;20089;-62
2024/01/03 04:14:08;;;;;;;0.30;0.30;;;8.60;99.90;;;;;;4385043;32;20081;-61
2024/01/03 04:16:34;;;;;;;0.30;0.30;;;8.60;99.90;;;;;;4398694;32;20075;-62
2024/01/03 04:19:00;;;;;;;0.30;0.30;;;8.70;99.90;;;;;;4397604;32;20077;-61
2024/01/03 04:21:26;;;;;;;0.30;0.30;;;8.60;99.90;;;;;;4398903;32;20069;-62
2024/01/03 04:23:52;;;;;;;0.30;0.30;;;8.60;99.90;;;;;;4399743;32;20957;-62
2024/01/03 04:26:17;;;;;;;0.20;0.20;;;8.70;99.90;;;;;;4398143;32;20098;-62
2024/01/03 04:28:43;;;;;;;0.30;0.30;;;8.70;99.90;;;;;;4395514;32;20070;-61
2024/01/03 04:31:09;;;;;;;0.30;0.30;;;8.70;99.90;;;;;;4395599;32;20066;-61
2024/01/03 04:33:34;;;;;;;1.48;0.60;;;8.70;99.90;;;;;;4395233;32;20070;-63
2024/01/03 04:35:59;;;;;;;0.30;0.30;;;8.70;99.90;;;;;;4395288;32;20418;-61
2024/01/03 04:38:25;;;;;;;0.28;0.28;;;8.70;99.90;;;;;;4395152;32;20062;-61
2024/01/03 04:40:50;;;;;;;0.32;0.32;;;8.70;99.90;;;;;;4394242;32;20105;-61
2024/01/03 04:43:16;;;;;;;0.20;0.20;;;8.70;99.90;;;;;;4396077;32;20390;-61
2024/01/03 04:45:42;;;;;;;0.98;0.50;;;8.70;99.90;;;;;;4394248;32;20153;-60
2024/01/03 04:48:08;;;;;;;0.35;0.35;;;8.80;99.90;;;;;;4393521;32;20081;-60
2024/01/03 04:50:34;;;;;;;0.22;0.22;;;8.80;99.90;;;;;;4395750;32;20414;-61
2024/01/03 04:52:59;;;;;;;0.30;0.30;;;8.80;99.90;;;;;;4378391;32;20407;-61
2024/01/03 04:55:26;;;;;;;0.30;0.30;;;8.80;99.90;;;;;;4395909;32;20078;-61
2024/01/03 04:57:51;;;;;;;0.30;0.30;;;8.80;99.90;;;;;;4393315;32;20120;-62
2024/01/03 05:00:17;;;;;;;0.30;0.30;;;8.80;99.90;;;;;;4395982;32;20541;-61
2024/01/03 05:02:43;;;;;;;0.30;0.30;;;8.80;99.90;;;;;;4392868;32;20070;-60
2024/01/03 05:05:08;;;;;;;0.85;0.85;;;8.80;99.90;;;;;;4392701;32;20376;-60
2024/01/03 05:07:34;;;;;;;0.22;0.22;;;8.80;99.90;;;;;;4392526;32;20128;-62
2024/01/03 05:10:00;;;;;;;0.20;0.20;;;8.80;99.90;;;;;;4392647;32;20081;-60
2024/01/03 05:12:26;;;;;;;0.40;0.40;;;8.80;99.90;;;;;;4393480;32;20083;-62
2024/01/03 05:14:52;;;;;;;0.30;0.30;;;8.80;99.90;;;;;;4395583;32;20390;-61
2024/01/03 05:17:17;;;;;;;0.30;0.30;;;8.80;99.90;;;;;;4396264;32;20212;-60
2024/01/03 05:19:43;;;;;;;0.20;0.20;;;8.80;99.90;;;;;;4393565;32;20075;-60
2024/01/03 05:22:09;;;;;;;1.95;1.15;;;8.90;99.90;;;;;;4394557;32;20090;-60
2024/01/03 05:24:34;;;;;;;0.30;0.30;;;8.90;99.90;;;;;;4395829;32;20144;-61
2024/01/03 05:27:00;;;;;;;0.22;0.22;;;8.80;99.90;;;;;;4394054;32;20589;-61
2024/01/03 05:29:26;;;;;;;0.40;0.40;;;8.80;99.90;;;;;;4377548;32;20086;-61
2024/01/03 05:31:52;;;;;;;0.40;0.40;;;8.80;99.90;;;;;;4377306;32;20074;-61
2024/01/03 05:34:18;;;;;;;0.28;0.28;;;8.90;99.90;;;;;;4396016;32;20086;-61
2024/01/03 05:36:43;;;;;;;0.45;0.45;;;8.90;99.90;;;;;;4392888;32;20073;-61
2024/01/03 05:39:13;;;;;;;0.30;0.30;;;8.90;99.90;;;;;;4393117;32;20089;-61
2024/01/03 05:41:38;;;;;;;0.32;0.32;;;8.90;99.90;;;;;;4368268;32;20529;-61
2024/01/03 05:44:04;;;;;;;0.30;0.30;;;9.00;99.90;;;;;;4395386;32;20147;-63
2024/01/03 05:46:30;;;;;;;0.30;0.30;;;8.90;99.90;;;;;;4395150;32;20065;-62
2024/01/03 05:48:55;;;;;;;0.25;0.25;;;9.00;99.90;;;;;;4394839;32;20509;-62
2024/01/03 05:51:21;;;;;;;0.22;0.22;;;9.00;99.90;;;;;;4394417;32;20070;-61
2024/01/03 05:53:48;;;;;;;0.95;0.88;;;9.00;99.90;;;;;;4390910;32;20121;-61
2024/01/03 05:56:14;;;;;;;0.30;0.30;;;9.00;99.90;;;;;;4393921;32;20089;-61
2024/01/03 05:58:42;;;;;;;0.40;0.40;;;9.00;99.90;;;;;;4392788;32;20113;-62
2024/01/03 06:01:08;;;;;;;0.32;0.32;;;9.00;99.90;;;;;;4392842;32;20473;-62
2024/01/03 06:03:33;;;;;;;0.30;0.30;;;9.00;99.90;;;;;;4394735;32;20069;-61
2024/01/03 06:05:59;;;;;;;0.30;0.30;;;9.10;99.90;;;;;;4394232;32;20090;-63
2024/01/03 06:08:24;;;;;;;0.30;0.30;;;9.10;99.90;;;;;;4392470;32;20081;-62
2024/01/03 06:10:50;;;;;;;0.40;0.40;;;9.10;99.90;;;;;;4391963;32;20067;-61
2024/01/03 06:13:15;;;;;;;0.30;0.30;;;9.10;99.90;;;;;;4398702;32;20517;-61
2024/01/03 06:15:41;;;;;;;0.30;0.30;;;9.10;99.90;;;;;;4394702;32;20098;-62
2024/01/03 06:18:07;;;;;;;0.62;0.62;;;9.10;99.90;;;;;;4378468;32;20541;-63
2024/01/03 06:20:32;;;;;;;0.40;0.40;;;9.10;99.90;;;;;;4392834;32;20137;-62
2024/01/03 06:22:58;;;;;;;0.28;0.28;;;9.10;99.90;;;;;;4398033;32;20176;-62
2024/01/03 06:25:23;;;;;;;0.30;0.30;;;9.10;99.90;;;;;;4394683;32;20402;-61
2024/01/03 06:27:48;;;;;;;0.30;0.30;;;9.20;99.90;;;;;;4392485;32;20074;-60
2024/01/03 06:30:14;;;;;;;0.28;0.28;;;9.20;99.90;;;;;;4394131;32;20133;-62
2024/01/03 06:32:40;;;;;;;0.30;0.30;;;9.20;99.90;;;;;;4393059;32;20785;-62
2024/01/03 06:35:05;;;;;;;1.25;0.80;;;9.20;99.90;;;;;;4398743;32;20057;-61
2024/01/03 06:37:31;;;;;;;0.30;0.30;;;9.20;99.90;;;;;;4367336;32;20081;-61
2024/01/03 06:39:57;;;;;;;0.30;0.30;;;9.20;99.90;;;;;;4394556;32;21965;-61
2024/01/03 06:42:24;;;;;;;0.70;0.70;;;9.20;99.90;;;;;;4392543;32;20090;-61
2024/01/03 06:44:49;;;;;;;0.50;0.50;;;9.20;99.90;;;;;;4397537;32;20077;-62
2024/01/03 06:47:15;;;;;;;0.73;0.40;;;9.30;99.90;;;;;;4398371;32;20572;-61
2024/01/03 06:49:40;;;;;;;0.35;0.35;;;9.30;99.90;;;;;;4397617;32;20081;-61
2024/01/03 06:52:06;;;;;;;0.35;0.35;;;9.30;99.90;;;;;;4395016;32;20074;-61
2024/01/03 06:54:31;;;;;;;0.30;0.30;;;9.30;99.90;;;;;;4395967;32;20074;-61
2024/01/03 06:56:58;;;;;;;0.43;0.40;;;9.30;99.90;;;;;;4396763;32;20532;-62
2024/01/03 06:59:23;;;;;;;0.30;0.30;;;9.30;99.90;;;;;;4394161;32;20121;-60
2024/01/03 07:01:49;;;;;;;1.55;0.60;;;9.30;99.90;;;;;;4395238;32;20089;-61
2024/01/03 07:04:15;;;;;;;0.28;0.28;;;9.30;99.90;;;;;;4395369;32;20086;-61
2024/01/03 07:06:41;;;;;;;0.30;0.30;;;9.30;99.90;;;;;;4397345;32;20074;-62
2024/01/03 07:09:06;;;;;;;0.30;0.30;;;9.30;99.90;;;;;;4395389;32;20082;-61
2024/01/03 07:11:33;;;;;;;0.30;0.30;;;9.30;99.90;;;;;;4394802;32;20090;-62
2024/01/03 07:13:59;;;;;;;0.50;0.50;;;9.30;99.90;;;;;;4396871;32;20998;-61
2024/01/03 07:16:25;;;;;;;0.30;0.30;;;9.30;99.90;;;;;;4396494;32;20081;-62
2024/01/03 07:18:51;;;;;;;0.30;0.30;;;9.30;99.90;;;;;;4394969;32;20066;-62
2024/01/03 07:21:16;;;;;;;0.30;0.30;;;9.30;99.90;;;;;;4394343;32;20102;-61
2024/01/03 07:23:42;;;;;;;0.40;0.40;;;9.30;99.90;;;;;;4395266;32;20140;-61
2024/01/03 07:26:07;;;;;;;0.30;0.30;;;9.40;99.90;;;;;;4394784;32;20086;-61
2024/01/03 07:28:33;;;;;;;1.45;0.60;;;9.30;99.90;;;;;;4377686;32;20129;-62
2024/01/03 07:30:59;;;;;;;0.52;0.52;;;9.30;99.90;;;;;;4395104;32;20148;-61
2024/01/03 07:33:24;;;;;;;2.30;0.85;;;9.40;99.90;;;;;;4396072;32;20094;-62
2024/01/03 07:35:50;;;;;;;0.43;0.43;;;9.40;99.90;;;;;;4379973;32;20278;-62
2024/01/03 07:38:15;;;;;;;0.20;0.20;;;9.40;99.90;;;;;;4393815;32;20091;-60
2024/01/03 07:40:41;;;;;;;0.52;0.52;;;9.40;99.90;;;;;;4396121;32;20103;-61
2024/01/03 07:43:06;;;;;;;0.20;0.20;;;9.50;99.90;;;;;;4394329;32;20078;-61
2024/01/03 07:45:32;;;;;;;0.20;0.20;;;9.40;99.90;;;;;;4379136;32;20477;-61
2024/01/03 07:47:57;;;;;;;0.30;0.30;;;9.50;99.90;;;;;;4396828;32;20098;-61
2024/01/03 07:50:23;;;;;;;0.30;0.30;;;9.50;99.90;;;;;;4379138;32;20090;-61
2024/01/03 07:52:48;;;;;;;0.30;0.30;;;9.50;99.90;;;;;;4394773;32;20220;-61
2024/01/03 07:55:14;;;;;;;0.75;0.35;;;9.40;99.90;;;;;;4395212;32;20687;-61
2024/01/03 07:57:40;;;;;;;0.30;0.30;;;9.50;99.90;;;;;;4394413;32;20077;-61
2024/01/03 08:02:34;;;;;;;2.40;0.55;;;9.50;99.90;;;;;;4398567;32;20082;-61
2024/01/03 08:05:00;;;;;;;0.50;0.50;;;9.50;99.90;;;;;;4398159;32;20311;-61
2024/01/03 08:07:25;;;;;;;0.47;0.47;;;9.50;99.90;;;;;;4396845;32;20161;-61
2024/01/03 08:09:51;;;;;;;4.53;0.98;;;9.50;99.90;;;;;;4396451;32;20098;-60
2024/01/03 08:12:16;;;;;;;0.30;0.30;;;9.50;99.90;;;;;;4382525;32;20406;-61
2024/01/03 08:14:42;;;;;;;0.30;0.30;;;9.50;99.90;;;;;;4381632;32;20070;-61
2024/01/03 08:17:07;;;;;;;0.30;0.30;;;9.50;99.90;;;;;;4399909;32;20525;-61
2024/01/03 08:19:33;;;;;;;0.30;0.30;;;9.50;99.90;;;;;;4397953;32;20124;-62
2024/01/03 08:22:00;;;;;;;0.30;0.30;;;9.50;99.90;;;;;;4398028;32;20070;-62
2024/01/03 08:24:26;;;;;;;0.35;0.35;;;9.50;99.90;;;;;;4399172;32;20061;-61
2024/01/03 08:26:52;;;;;;;0.30;0.30;;;9.50;99.90;;;;;;4397416;32;20086;-62
2024/01/03 08:29:17;;;;;;;0.30;0.30;;;9.50;99.90;;;;;;4395219;32;20512;-62
2024/01/03 08:31:43;;;;;;;0.30;0.30;;;9.50;99.90;;;;;;4381007;32;20099;-62
2024/01/03 08:34:08;;;;;;;0.30;0.30;;;9.50;99.90;;;;;;4381486;32;20130;-62
2024/01/03 08:36:44;;;;;;;0.32;0.32;;;9.60;99.90;;;;;;4396889;32;20081;-61
2024/01/03 08:39:10;;;;;;;0.30;0.30;;;9.60;99.90;;;;;;4369267;32;20474;-61
2024/01/03 08:41:36;;;;;;;0.30;0.30;;;9.60;99.90;;;;;;4379686;32;20091;-60
2024/01/03 08:44:02;;;;;;;0.50;0.50;;;9.60;99.90;;;;;;4399237;32;20157;-61
2024/01/03 08:46:31;;;;;;;0.20;0.20;;;9.60;99.90;;;;;;4399021;32;20070;-62
2024/01/03 08:48:57;;;;;;;0.30;0.30;;;9.60;99.90;;;;;;4381538;32;20090;-61
2024/01/03 08:51:23;;;;;;;0.30;0.30;;;9.70;99.90;;;;;;4380846;32;20070;-62
2024/01/03 08:53:49;;;;;;;0.30;0.30;;;9.70;99.90;;;;;;4379653;32;20081;-61
2024/01/03 08:56:17;;;;;;;0.40;0.40;;;9.70;99.90;;;;;;4394829;32;20099;-60
2024/01/03 08:58:44;;;;;;;0.73;0.73;;;9.80;99.90;;;;;;4394867;32;20607;-61
2024/01/03 09:01:15;;;;;;;0.30;0.30;;;9.80;99.90;;;;;;4378916;32;20124;-61
2024/01/03 09:03:41;;;;;;;0.30;0.30;;;9.80;99.90;;;;;;4391387;32;20133;-62
2024/01/03 09:06:06;;;;;;;0.30;0.30;;;9.80;99.90;;;;;;4394895;32;20137;-62
2024/01/03 09:08:33;;;;;;;0.50;0.50;;;9.90;99.90;;;;;;4394440;32;20090;-61
2024/01/03 09:10:58;;;;;;;0.28;0.28;;;9.90;99.90;;;;;;4392833;32;20085;-62
2024/01/03 09:13:24;;;;;;;0.40;0.40;;;10.00;99.90;;;;;;4395946;32;20077;-63
2024/01/03 09:15:50;;;;;;;0.40;0.40;;;10.10;99.90;;;;;;4394571;32;20106;-62
2024/01/03 09:18:16;;;;;;;2.05;0.82;;;10.20;99.90;;;;;;4395027;32;20082;-62
2024/01/03 09:20:41;;;;;;;0.30;0.30;;;10.20;99.90;;;;;;4394891;32;20081;-61
2024/01/03 09:23:07;;;;;;;0.40;0.40;;;10.20;99.90;;;;;;4395472;32;20128;-62
2024/01/03 09:25:32;;;;;;;0.32;0.32;;;10.20;99.90;;;;;;4379439;32;20109;-61
2024/01/03 09:27:58;;;;;;;1.08;0.88;;;10.30;99.90;;;;;;4392791;32;20158;-62
2024/01/03 09:30:24;;;;;;;0.30;0.30;;;10.30;99.90;;;;;;4395058;32;20423;-62
2024/01/03 09:32:50;;;;;;;0.40;0.40;;;10.30;99.90;;;;;;4391888;32;20144;-60
2024/01/03 09:35:15;;;;;;;0.30;0.30;;;10.40;99.90;;;;;;4394810;32;20074;-62
2024/01/03 09:37:41;;;;;;;0.50;0.50;;;10.40;99.90;;;;;;4380458;32;20568;-62
2024/01/03 09:40:09;;;;;;;0.25;0.25;;;10.50;99.90;;;;;;4393758;32;20782;-63
2024/01/03 09:42:35;;;;;;;0.65;0.65;;;10.50;99.90;;;;;;4379237;32;20090;-61
2024/01/03 09:45:01;;;;;;;0.30;0.30;;;10.50;99.90;;;;;;4393791;32;20078;-62
2024/01/03 09:47:27;;;;;;;0.30;0.30;;;10.60;99.90;;;;;;4395423;32;20094;-62
2024/01/03 09:49:52;;;;;;;0.30;0.30;;;10.60;99.90;;;;;;4394098;32;20082;-61
2024/01/03 09:52:18;;;;;;;0.30;0.30;;;10.50;99.90;;;;;;4392673;32;20124;-63
2024/01/03 09:54:44;;;;;;;0.50;0.50;;;10.60;99.90;;;;;;4393230;32;20450;-62
2024/01/03 09:57:11;;;;;;;0.95;0.47;;;10.70;99.90;;;;;;4394632;32;20066;-64
2024/01/03 09:59:37;;;;;;;0.65;0.65;;;10.70;99.90;;;;;;4396338;32;20050;-63
2024/01/03 10:02:02;;;;;;;0.70;0.70;;;10.70;99.90;;;;;;4394544;32;20069;-61
2024/01/03 10:04:28;;;;;;;0.30;0.30;;;10.70;99.90;;;;;;4396191;32;20070;-64
2024/01/03 10:06:54;;;;;;;0.30;0.30;;;10.70;99.90;;;;;;4394189;32;20082;-63
2024/01/03 10:09:21;;;;;;;0.40;0.40;;;10.80;99.90;;;;;;4397447;32;20148;-63
2024/01/03 10:11:51;;;;;;;0.40;0.40;;;10.90;99.90;;;;;;4398588;32;20077;-64
2024/01/03 10:14:19;;;;;;;0.30;0.30;;;10.90;99.90;;;;;;4396173;32;20102;-63
2024/01/03 10:16:45;;;;;;;1.75;0.50;;;10.90;99.90;;;;;;4380274;32;20537;-63
2024/01/03 10:19:16;;;;;;;0.50;0.50;;;10.90;99.90;;;;;;4394733;32;20098;-64
2024/01/03 10:21:59;;;;;;;0.40;0.40;;;10.90;99.90;;;;;;4396147;32;20077;-63
2024/01/03 10:24:24;;;;;;;0.30;0.30;;;10.90;99.90;;;;;;4394533;32;20078;-61
2024/01/03 10:26:50;;;;;;;0.75;0.60;;;11.00;99.90;;;;;;4400293;32;20103;-62
2024/01/03 10:29:18;;;;;;;0.70;0.70;;;11.00;99.90;;;;;;4366209;32;20066;-62
2024/01/03 10:31:45;;;;;;;0.30;0.30;;;11.00;99.90;;;;;;4397597;32;20108;-61
2024/01/03 10:34:15;;;;;;;0.40;0.40;;;11.00;99.90;;;;;;4400607;32;20085;-63
2024/01/03 10:36:42;;;;;;;0.47;0.47;;;11.00;99.90;;;;;;4395408;32;20474;-62
2024/01/03 10:39:14;;;;;;;0.30;0.30;;;11.00;99.90;;;;;;4385313;32;20089;-62
2024/01/03 10:41:45;;;;;;;0.85;0.65;;;11.00;99.90;;;;;;4385875;32;20065;-62
2024/01/03 10:44:13;;;;;;;0.30;0.30;;;11.00;99.90;;;;;;4385087;32;20181;-62
2024/01/03 10:46:40;;;;;;;0.30;0.30;;;11.00;99.90;;;;;;4395525;32;20532;-62
2024/01/03 10:49:07;;;;;;;0.30;0.30;;;11.00;99.90;;;;;;4399875;32;20092;-62
2024/01/03 10:51:40;;;;;;;0.30;0.30;;;11.10;99.90;;;;;;4401233;32;20097;-62
2024/01/03 10:54:09;;;;;;;0.30;0.30;;;11.10;99.90;;;;;;4396499;32;20069;-63
2024/01/03 10:56:35;;;;;;;0.37;0.37;;;11.20;99.90;;;;;;4398841;32;20117;-62
2024/01/03 10:59:02;;;;;;;0.30;0.30;;;11.10;99.90;;;;;;4396293;32;20474;-63
2024/01/03 11:01:34;;;;;;;2.17;0.40;;;11.20;99.90;;;;;;4367922;32;20082;-63
2024/01/03 11:04:10;;;;;;;0.40;0.40;;;11.30;99.90;;;;;;4396274;32;20537;-62
2024/01/03 11:06:43;;;;;;;0.40;0.40;;;11.20;99.90;;;;;;4396842;32;20077;-62
2024/01/03 11:09:08;;;;;;;0.30;0.30;;;11.20;99.90;;;;;;4393588;32;20172;-62
2024/01/03 11:11:36;;;;;;;0.30;0.30;;;11.20;99.90;;;;;;4392966;32;20078;-62
2024/01/03 11:14:19;;;;;;;0.40;0.40;;;11.20;99.90;;;;;;4369335;32;20690;-62
2024/01/03 11:16:45;;;;;;;0.30;0.30;;;11.20;99.90;;;;;;4392138;32;20070;-62
2024/01/03 11:19:11;;;;;;;0.30;0.30;;;11.10;99.90;;;;;;4393899;32;20430;-62
2024/01/03 11:21:38;;;;;;;0.30;0.30;;;11.10;99.90;;;;;;4382216;32;20112;-62
2024/01/03 11:24:28;;;;;;;0.35;0.35;;;11.20;99.90;;;;;;4398891;32;20066;-62
2024/01/03 11:26:56;;;;;;;0.40;0.40;;;11.10;99.90;;;;;;4380288;32;20577;-62
2024/01/03 11:29:55;;;;;;;0.30;0.30;;;11.10;99.90;;;;;;4396272;32;20073;-63
2024/01/03 11:32:31;;;;;;;0.30;0.30;;;11.20;99.90;;;;;;4393519;32;20094;-62
2024/01/03 11:34:57;;;;;;;0.40;0.40;;;11.20;99.90;;;;;;4398751;32;20094;-62
2024/01/03 11:37:25;;;;;;;0.32;0.32;;;11.20;99.90;;;;;;4401283;32;20082;-62
2024/01/03 11:39:52;;;;;;;0.30;0.30;;;11.30;99.90;;;;;;4398856;32;20070;-61
2024/01/03 11:42:19;;;;;;;0.40;0.40;;;11.30;99.90;;;;;;4397593;32;20070;-61
2024/01/03 11:44:45;;;;;;;0.40;0.40;;;11.30;99.90;;;;;;4395320;32;20074;-62
2024/01/03 11:47:11;;;;;;;0.30;0.30;;;11.30;99.90;;;;;;4398802;32;20571;-63
2024/01/03 11:49:37;;;;;;;0.30;0.30;;;11.30;99.90;;;;;;4398374;32;20230;-62
2024/01/03 11:52:03;;;;;;;7.47;0.73;;;11.40;99.90;;;;;;4395855;32;80438;-63
2024/01/03 11:54:28;;;;;;;0.40;0.40;;;11.30;99.90;;;;;;4394989;32;20074;-63
2024/01/03 11:56:56;;;;;;;0.45;0.45;;;11.30;99.90;;;;;;4395629;32;20054;-62
2024/01/03 11:59:22;;;;;;;0.40;0.40;;;11.30;99.90;;;;;;4381057;32;20437;-62
2024/01/03 12:02:03;;;;;;;0.60;0.60;;;11.20;99.90;;;;;;4394135;32;20090;-62
2024/01/03 12:04:28;;;;;;;0.62;0.62;;;11.20;99.90;;;;;;4396130;32;20079;-62
2024/01/03 12:06:58;;;;;;;0.28;0.28;;;11.10;99.90;;;;;;4380363;32;20085;-62
2024/01/03 12:09:28;;;;;;;0.30;0.30;;;11.10;99.90;;;;;;4397871;32;20117;-62
2024/01/03 12:11:54;;;;;;;0.73;0.68;;;11.10;99.90;;;;;;4398009;32;20311;-63
2024/01/03 12:14:20;;;;;;;1.00;0.60;;;11.10;99.90;;;;;;4396619;32;20085;-62
2024/01/03 12:16:47;;;;;;;0.30;0.30;;;11.00;99.90;;;;;;4398610;32;20094;-62
2024/01/03 12:19:32;;;;;;;0.37;0.37;;;11.00;99.90;;;;;;4384623;32;20077;-62
2024/01/03 12:21:59;;;;;;;0.37;0.37;;;11.00;99.90;;;;;;4381481;32;20094;-63
2024/01/03 12:24:43;;;;;;;0.30;0.30;;;11.00;99.90;;;;;;4397531;32;20411;-60
2024/01/03 12:27:09;;;;;;;0.73;0.52;;;11.00;99.90;;;;;;4394592;32;20809;-62
2024/01/03 12:29:36;;;;;;;24.42;0.62;;;11.10;99.90;;;;;;4379626;32;20081;-62
2024/01/03 12:32:22;;;;;;;0.73;0.73;;;11.00;99.90;;;;;;4394329;32;20177;-63
2024/01/03 12:34:59;;;;;;;0.30;0.30;;;11.00;99.90;;;;;;4381963;32;20059;-62
2024/01/03 12:37:25;;;;;;;0.30;0.30;;;11.00;99.90;;;;;;4380927;32;20562;-62
2024/01/03 12:39:50;;;;;;;1.02;0.93;;;11.00;99.90;;;;;;4395597;32;20093;-60
2024/01/03 12:42:16;;;;;;;4.75;0.50;;;11.00;99.90;;;;;;4395367;32;20090;-61
2024/01/03 12:44:42;;;;;;;23.10;0.43;;;11.00;99.90;;;;;;4396729;32;20066;-62
2024/01/03 12:47:09;;;;;;;0.30;0.30;;;11.00;99.90;;;;;;4396296;32;20074;-61
2024/01/03 12:49:37;;;;;;;0.55;0.45;;;11.00;99.90;;;;;;4396337;32;20085;-62
2024/01/03 12:52:03;;;;;;;2.62;0.90;;;11.10;99.90;;;;;;4392824;32;20136;-62
2024/01/03 12:54:29;;;;;;;0.30;0.30;;;11.10;99.90;;;;;;4378986;32;20074;-62
2024/01/03 12:56:54;;;;;;;0.43;0.43;;;11.10;99.90;;;;;;4378782;32;20447;-63